Etusivu
METAR-TAF:

METAR-TAF

Lentoasemat :

Lubbock, Texas, Yhdysvallat

Leveyspiiri: 33-40-03N, Pituuspiiri: 101-49-17W, korkeus merenpinnasta: 1000 m

Tämänhetkinen sää

Tämä raportti tehtiin 17 minuuttia sitten, kello 17.53 UTC
Tuuli 6 kn eri suunnista
Lämpötila 36°C
Kosteus 21%
Ilmanpaine 1011 hPa
Näkyvyys: 16.1 km
Muutamia pilviä 7500 ft:n korkeudessa

METAR: KLBB 201753Z VRB06KT 10SM FEW075 36/10 A2984 RMK AO2 SLP041 T03560100 10356 20194 58002

Aika: 13:10 (18:10 UTC)

Sääennuste

Tämä raportti tehtiin 38 minuuttia sitten, kello 17.32 UTC
Ennuste voimassa 20. päivästä klo 18 UTC - 21. päivään klo 18 UTC
Tuuli 11 kn lännestä
Näkyvyys: 10 km
Muutamia pilviä 7000 ft:n korkeudessa
Muutamia pilviä 25000 ft:n korkeudessa
From 21. päivästä klo 0200 UTC
Tuuli 9 kn etelästä/lounaasta
Näkyvyys: 10 km
Muutamia pilviä 25000 ft:n korkeudessa

TAF: KLBB 201732Z 2018/2118 27011KT P6SM FEW070 FEW250 FM210200 20009KT P6SM FEW250

Säähavainnot ja -ennusteet yli 4000 lentoasemalta (METAR- ja TAF-raportit).

Käytössä olevat sääasemat on merkitty karttaan keltaisilla ja punaisilla pisteillä.

Aseta hiiri pisteen päälle nähdäksesi sääaseman nimen.

Klikkaa sitten nähdäksesi säähavainnot ja -ennusteet.

Kartan vaihtaminen: klikkaa mustalla rastilla varustettuja vihreitä pisteitä, niin voit zoomata sisään; viivalla varustettua vihreää pistettä, niin voit zoomata ulos tai vihreitä nuolia, niin pääset viereisille kartoille.


METAR-TAF: